createdAt,value
2023-02-19T00:01:47.048Z,97959.59
2023-02-19T00:04:22.868Z,97963.88
2023-02-19T00:06:50.311Z,97968.16
2023-02-19T00:09:19.764Z,97960.47
2023-02-19T00:11:48.161Z,97951.88
2023-02-19T00:14:19.177Z,97953.59
2023-02-19T00:16:47.252Z,97928.78
2023-02-19T00:19:18.105Z,97970.75
2023-02-19T00:21:45.661Z,97850.94
2023-02-19T00:24:14.307Z,97942.47
2023-02-19T00:26:43.597Z,97942.47
2023-02-19T00:29:19.888Z,97949.31
2023-02-19T00:31:48.388Z,97939.03
2023-02-19T00:34:16.156Z,97929.63
2023-02-19T00:36:44.332Z,97946.78
2023-02-19T00:39:15.985Z,97933.09
2023-02-19T00:41:44.738Z,97940.75
2023-02-19T00:44:13.268Z,97850.97
2023-02-19T00:46:43.754Z,97931.34
2023-02-19T00:49:29.242Z,97926.22
2023-02-19T00:51:57.016Z,97842.41
2023-02-19T00:54:24.631Z,97925.38
2023-02-19T00:56:52.279Z,97895.38
2023-02-19T00:59:19.895Z,97886.84
2023-02-19T01:01:47.640Z,97897.09
2023-02-19T01:04:16.612Z,97898.81
2023-02-19T01:06:44.365Z,97892.00
2023-02-19T01:09:11.932Z,97902.25
2023-02-19T01:11:39.839Z,97896.25
2023-02-19T01:14:07.775Z,97765.44
2023-02-19T01:16:35.503Z,97887.69
2023-02-19T01:19:03.457Z,97883.41
2023-02-19T01:21:31.454Z,97886.81
2023-02-19T01:23:59.159Z,97830.34
2023-02-19T01:26:30.811Z,97880.84
2023-02-19T01:29:00.781Z,97881.69
2023-02-19T01:31:29.465Z,97886.00
2023-02-19T01:34:02.744Z,97842.38
2023-02-19T01:36:32.987Z,97871.44
2023-02-19T01:39:05.333Z,97867.16
2023-02-19T01:41:36.552Z,97859.47
2023-02-19T01:44:13.138Z,97859.47
2023-02-19T01:46:42.795Z,97864.59
2023-02-19T01:49:18.948Z,97866.28
2023-02-19T01:51:56.579Z,97866.28
2023-02-19T01:54:28.604Z,97781.72
2023-02-19T01:56:57.362Z,97870.56
2023-02-19T01:59:25.886Z,97869.72
2023-02-19T02:01:53.988Z,97864.59
2023-02-19T02:04:21.470Z,97868.84
2023-02-19T02:06:52.366Z,97856.03
2023-02-19T02:09:41.360Z,97867.16
2023-02-19T02:12:08.895Z,97873.16
2023-02-19T02:14:40.327Z,97857.75
2023-02-19T02:17:29.362Z,97868.88
2023-02-19T02:20:15.298Z,97858.63
2023-02-19T02:22:52.223Z,97884.28
2023-02-19T02:25:39.349Z,97857.75
2023-02-19T02:28:25.124Z,97860.34
2023-02-19T02:30:56.538Z,97856.94
2023-02-19T02:33:41.871Z,97850.94
2023-02-19T02:36:17.191Z,97851.78
2023-02-19T02:38:46.610Z,97831.25
2023-02-19T02:41:15.720Z,97830.41
2023-02-19T02:43:43.355Z,97842.34
2023-02-19T02:46:23.298Z,97846.63
2023-02-19T02:48:58.878Z,97839.81
2023-02-19T02:51:33.647Z,97794.47
2023-02-19T02:54:34.692Z,97843.19
2023-02-19T02:57:09.695Z,97838.03
2023-02-19T02:59:45.832Z,97832.91
2023-02-19T03:02:22.941Z,97831.25
2023-02-19T03:05:25.673Z,97833.78
2023-02-19T03:08:04.941Z,97837.22
2023-02-19T03:10:39.240Z,97823.53
2023-02-19T03:13:30.173Z,97832.94
2023-02-19T03:16:27.346Z,97820.09
2023-02-19T03:19:15.989Z,97830.34
2023-02-19T03:21:47.326Z,97828.63
2023-02-19T03:24:35.214Z,97831.19
2023-02-19T03:27:05.012Z,97717.56
2023-02-19T03:29:40.882Z,97825.25
2023-02-19T03:32:35.843Z,97815.84
2023-02-19T03:35:29.301Z,97808.97
2023-02-19T03:38:07.198Z,97806.38
2023-02-19T03:40:50.936Z,97794.41
2023-02-19T03:43:39.599Z,97739.78
2023-02-19T03:46:15.665Z,97805.50
2023-02-19T03:49:02.997Z,97802.09
2023-02-19T03:51:33.582Z,97804.63
2023-02-19T03:54:01.767Z,97802.91
2023-02-19T03:56:38.724Z,97781.56
2023-02-19T03:59:11.088Z,97717.53
2023-02-19T04:01:49.249Z,97802.03
2023-02-19T04:04:33.396Z,97795.19
2023-02-19T04:07:01.669Z,97654.31
2023-02-19T04:09:43.509Z,97796.94
2023-02-19T04:12:17.600Z,97795.19
2023-02-19T04:14:48.720Z,97799.47
2023-02-19T04:17:32.539Z,97790.03
2023-02-19T04:20:01.135Z,97781.50
2023-02-19T04:22:29.480Z,97786.63
2023-02-19T04:24:57.421Z,97782.41
2023-02-19T04:27:24.880Z,97791.78
2023-02-19T04:29:52.327Z,97781.53
2023-02-19T04:32:20.143Z,97785.84
2023-02-19T04:34:47.396Z,97774.72
2023-02-19T04:37:14.722Z,97785.81
2023-02-19T04:39:42.556Z,97784.09
2023-02-19T04:42:11.064Z,97800.38
2023-02-19T04:44:38.759Z,97740.53
2023-02-19T04:47:06.171Z,97782.38
2023-02-19T04:49:33.627Z,97695.31
2023-02-19T04:52:01.067Z,97782.41
2023-02-19T04:54:28.806Z,97703.00
2023-02-19T04:56:57.667Z,97778.16
2023-02-19T04:59:25.215Z,97778.16
2023-02-19T05:01:53.023Z,97777.28
2023-02-19T05:04:20.670Z,97697.88
2023-02-19T05:06:48.195Z,97758.47
2023-02-19T05:09:15.803Z,97770.41
2023-02-19T05:11:43.250Z,97772.97
2023-02-19T05:14:10.856Z,97767.03
2023-02-19T05:16:38.446Z,97749.06
2023-02-19T05:19:06.036Z,97763.53
2023-02-19T05:21:33.423Z,97767.84
2023-02-19T05:24:01.039Z,97763.59
2023-02-19T05:26:29.446Z,97674.81
2023-02-19T05:28:57.652Z,97745.59
2023-02-19T05:31:25.895Z,97655.13
2023-02-19T05:33:55.801Z,97704.59
2023-02-19T05:36:24.030Z,97765.25
2023-02-19T05:38:56.517Z,97743.00
2023-02-19T05:41:29.068Z,97739.56
2023-02-19T05:43:57.869Z,97744.66
2023-02-19T05:46:27.882Z,97737.78
2023-02-19T05:48:56.174Z,97643.88
2023-02-19T05:51:25.377Z,97753.16
2023-02-19T05:53:54.652Z,97718.09
2023-02-19T05:56:32.639Z,97748.78
2023-02-19T05:59:08.258Z,97716.34
2023-02-19T06:01:36.731Z,97748.75
2023-02-19T06:04:08.300Z,97731.69
2023-02-19T06:06:37.361Z,97654.81
2023-02-19T06:09:06.277Z,97566.13
2023-02-19T06:11:34.778Z,97710.25
2023-02-19T06:14:03.214Z,97560.19
2023-02-19T06:16:32.739Z,97752.09
2023-02-19T06:19:04.156Z,97695.69
2023-02-19T06:21:32.690Z,97663.31
2023-02-19T06:24:05.120Z,97723.84
2023-02-19T06:26:32.688Z,97720.41
2023-02-19T06:29:00.901Z,97753.75
2023-02-19T06:31:28.965Z,97718.69
2023-02-19T06:33:56.884Z,97740.78
2023-02-19T06:36:24.742Z,97744.19
2023-02-19T06:38:52.800Z,97718.59
2023-02-19T06:41:20.548Z,97721.22
2023-02-19T06:43:48.191Z,97743.41
2023-02-19T06:46:16.304Z,97731.41
2023-02-19T06:48:45.740Z,97721.91
2023-02-19T06:51:15.500Z,97617.72
2023-02-19T06:53:43.831Z,97722.63
2023-02-19T06:56:32.551Z,97717.44
2023-02-19T06:59:03.429Z,97510.28
2023-02-19T07:01:37.098Z,97704.50
2023-02-19T07:04:06.660Z,97715.56
2023-02-19T07:06:35.864Z,97708.63
2023-02-19T07:09:05.695Z,97678.66
2023-02-19T07:11:35.331Z,97705.97
2023-02-19T07:14:05.483Z,97708.34
2023-02-19T07:16:33.103Z,97593.94
2023-02-19T07:19:02.352Z,97694.50
2023-02-19T07:21:30.559Z,97704.78
2023-02-19T07:23:58.310Z,97696.19
2023-02-19T07:26:25.973Z,97692.84
2023-02-19T07:28:53.703Z,97586.38
2023-02-19T07:31:23.469Z,97682.03
2023-02-19T07:33:51.528Z,97672.75
2023-02-19T07:36:20.690Z,97686.44
2023-02-19T07:38:53.052Z,97662.50
2023-02-19T07:41:20.498Z,97609.81
2023-02-19T07:43:48.083Z,97687.44
2023-02-19T07:46:15.709Z,97680.53
2023-02-19T07:48:44.747Z,97675.31
2023-02-19T07:51:17.646Z,97693.31
2023-02-19T07:53:46.330Z,97681.38
2023-02-19T07:56:14.334Z,97692.47
2023-02-19T07:58:42.156Z,97688.22
2023-02-19T08:01:18.718Z,97665.00
2023-02-19T08:03:48.202Z,97667.34
2023-02-19T08:06:17.058Z,97652.78
2023-02-19T08:08:44.353Z,97667.13
2023-02-19T08:11:30.352Z,97633.03
2023-02-19T08:13:57.896Z,97658.59
2023-02-19T08:16:40.721Z,97656.75
2023-02-19T08:19:09.129Z,97495.00
2023-02-19T08:21:37.650Z,97662.91
2023-02-19T08:24:06.139Z,97558.13
2023-02-19T08:26:34.685Z,97647.28
2023-02-19T08:29:04.012Z,97660.22
2023-02-19T08:31:31.946Z,97656.75
2023-02-19T08:34:02.877Z,97655.84
2023-02-19T08:36:30.705Z,97670.56
2023-02-19T08:38:58.065Z,97645.69
2023-02-19T08:41:25.949Z,97641.44
2023-02-19T08:43:53.509Z,97564.19
2023-02-19T08:46:21.421Z,97545.22
2023-02-19T08:48:49.210Z,97614.97
2023-02-19T08:51:16.955Z,97650.75
2023-02-19T08:53:44.250Z,97640.50
2023-02-19T08:56:16.205Z,97634.44
2023-02-19T08:58:44.596Z,97643.63
2023-02-19T09:01:14.761Z,97635.00
2023-02-19T09:03:45.716Z,97637.53
2023-02-19T09:06:19.594Z,97623.63
2023-02-19T09:08:47.493Z,97628.63
2023-02-19T09:11:15.182Z,97603.13
2023-02-19T09:13:43.683Z,97624.66
2023-02-19T09:16:12.218Z,97472.38
2023-02-19T09:18:40.308Z,97627.34
2023-02-19T09:21:07.943Z,97550.63
2023-02-19T09:23:37.030Z,97537.72
2023-02-19T09:26:08.812Z,97624.41
2023-02-19T09:28:36.748Z,97617.47
2023-02-19T09:31:09.897Z,97608.97
2023-02-19T09:33:37.672Z,97587.84
2023-02-19T09:36:05.446Z,97504.34
2023-02-19T09:38:34.217Z,97599.59
2023-02-19T09:41:08.377Z,97594.28
2023-02-19T09:43:36.356Z,97598.38
2023-02-19T09:46:13.825Z,97582.06
2023-02-19T09:48:41.951Z,97529.84
2023-02-19T09:51:11.704Z,97507.06
2023-02-19T09:53:48.053Z,97585.19
2023-02-19T09:56:17.274Z,97575.00
2023-02-19T09:58:50.387Z,97585.31
2023-02-19T10:01:18.964Z,97544.47
2023-02-19T10:03:48.731Z,97484.13
2023-02-19T10:06:20.894Z,97580.31
2023-02-19T10:08:51.811Z,97584.59
2023-02-19T10:11:19.921Z,97577.78
2023-02-19T10:13:57.280Z,97586.44
2023-02-19T10:16:27.110Z,97578.69
2023-02-19T10:18:54.685Z,97503.72
2023-02-19T10:21:27.674Z,97572.44
2023-02-19T10:24:03.271Z,97576.34
2023-02-19T10:26:35.588Z,97463.22
2023-02-19T10:29:04.685Z,97574.59
2023-02-19T10:31:33.665Z,97562.50
2023-02-19T10:34:08.066Z,97577.72
2023-02-19T10:36:39.720Z,97565.44
2023-02-19T10:39:42.666Z,97573.84
2023-02-19T10:42:19.390Z,97570.94
2023-02-19T10:44:51.760Z,97575.38
2023-02-19T10:47:23.330Z,97513.00
2023-02-19T10:49:52.995Z,97581.22
2023-02-19T10:52:30.653Z,97572.34
2023-02-19T10:55:25.583Z,97498.22
2023-02-19T10:57:53.319Z,97547.28
2023-02-19T11:00:31.793Z,97583.50
2023-02-19T11:03:21.253Z,97552.78
2023-02-19T11:05:58.403Z,97577.81
2023-02-19T11:08:26.044Z,97496.34
2023-02-19T11:10:53.608Z,97461.22
2023-02-19T11:13:31.205Z,97562.66
2023-02-19T11:16:00.919Z,97533.34
2023-02-19T11:18:32.220Z,97551.38
2023-02-19T11:21:02.765Z,97497.69
2023-02-19T11:23:32.840Z,97553.41
2023-02-19T11:26:05.164Z,97552.97
2023-02-19T11:28:39.256Z,97543.31
2023-02-19T11:31:32.689Z,97544.88
2023-02-19T11:34:29.525Z,97548.69
2023-02-19T11:37:17.416Z,97553.91
2023-02-19T11:39:47.649Z,97543.31
2023-02-19T11:42:48.912Z,97545.75
2023-02-19T11:45:19.474Z,97542.84
2023-02-19T11:48:07.129Z,97554.47
2023-02-19T11:50:52.878Z,97438.91
2023-02-19T11:53:28.396Z,97546.66
2023-02-19T11:56:20.979Z,97544.88
2023-02-19T11:59:05.197Z,97548.06
2023-02-19T12:01:47.445Z,97538.06
2023-02-19T12:04:37.765Z,97539.53
2023-02-19T12:07:16.499Z,97543.84
2023-02-19T12:09:44.549Z,97544.22
2023-02-19T12:12:56.596Z,97535.25
2023-02-19T12:15:32.110Z,97439.09
2023-02-19T12:18:27.336Z,97530.06
2023-02-19T12:21:16.323Z,97538.56
2023-02-19T12:23:55.680Z,97538.81
2023-02-19T12:26:26.459Z,97538.09
2023-02-19T12:29:01.592Z,97534.47
2023-02-19T12:31:47.907Z,97538.00
2023-02-19T12:34:38.107Z,97533.22
2023-02-19T12:37:29.626Z,97542.75
2023-02-19T12:40:12.862Z,97537.78
2023-02-19T12:43:02.178Z,97542.09
2023-02-19T12:45:41.131Z,97526.81
2023-02-19T12:48:26.741Z,97534.69
2023-02-19T12:51:25.436Z,97535.53
2023-02-19T12:54:05.039Z,97555.41
2023-02-19T12:56:45.154Z,97553.66
2023-02-19T12:59:16.157Z,97556.28
2023-02-19T13:01:53.491Z,97442.13
2023-02-19T13:04:41.951Z,97554.59
2023-02-19T13:07:20.768Z,97547.00
2023-02-19T13:09:56.314Z,97548.81
2023-02-19T13:12:37.050Z,97550.75
2023-02-19T13:15:17.103Z,97548.25
2023-02-19T13:17:49.738Z,97457.97
2023-02-19T13:20:30.477Z,97558.44
2023-02-19T13:23:30.673Z,97537.94
2023-02-19T13:26:12.242Z,97545.72
2023-02-19T13:28:54.539Z,97547.31
2023-02-19T13:31:34.322Z,97551.56
2023-02-19T13:34:33.402Z,97538.69
2023-02-19T13:37:03.694Z,97432.31
2023-02-19T13:39:31.681Z,97537.94
2023-02-19T13:41:59.647Z,97533.75
2023-02-19T13:44:33.650Z,97545.63
2023-02-19T13:47:01.207Z,97435.00
2023-02-19T13:49:28.554Z,97548.28
2023-02-19T13:51:56.614Z,97548.25
2023-02-19T13:54:40.043Z,97407.97
2023-02-19T13:57:22.828Z,97545.00
2023-02-19T13:59:55.146Z,97544.25
2023-02-19T14:02:22.701Z,97545.16
2023-02-19T14:05:02.421Z,97525.53
2023-02-19T14:07:49.538Z,97541.94
2023-02-19T14:10:51.756Z,97533.47
2023-02-19T14:13:50.138Z,97537.03
2023-02-19T14:16:38.211Z,97530.25
2023-02-19T14:19:14.730Z,97526.88
2023-02-19T14:21:44.258Z,97532.75
2023-02-19T14:24:13.823Z,97492.47
2023-02-19T14:26:41.683Z,97527.44
2023-02-19T14:29:12.820Z,97369.22
2023-02-19T14:31:40.738Z,97526.69
2023-02-19T14:34:25.197Z,97525.09
2023-02-19T14:36:58.601Z,97525.97
2023-02-19T14:39:38.212Z,97520.03
2023-02-19T14:42:09.304Z,97514.94
2023-02-19T14:44:59.240Z,97515.88
2023-02-19T14:47:31.063Z,97515.91
2023-02-19T14:50:03.831Z,97499.78
2023-02-19T14:52:41.086Z,97512.47
2023-02-19T14:55:15.067Z,97516.75
2023-02-19T14:57:47.597Z,97446.09
2023-02-19T15:00:38.624Z,97516.66
2023-02-19T15:03:07.711Z,97512.38
2023-02-19T15:05:37.737Z,97516.81
2023-02-19T15:08:12.919Z,97509.03
2023-02-19T15:10:43.257Z,97370.38
2023-02-19T15:13:20.045Z,97473.38
2023-02-19T15:15:51.208Z,97507.41
2023-02-19T15:18:24.368Z,97433.41
2023-02-19T15:20:59.103Z,97415.38
2023-02-19T15:23:30.787Z,97487.63
2023-02-19T15:25:58.980Z,97429.75
2023-02-19T15:28:26.324Z,97500.34
2023-02-19T15:31:01.076Z,97503.84
2023-02-19T15:33:31.339Z,97426.38
2023-02-19T15:36:06.167Z,97467.16
2023-02-19T15:38:34.814Z,97499.47
2023-02-19T15:41:03.368Z,97364.25
2023-02-19T15:44:02.149Z,97489.28
2023-02-19T15:46:34.319Z,97454.41
2023-02-19T15:49:19.713Z,97496.94
2023-02-19T15:51:57.353Z,97454.22
2023-02-19T15:54:32.098Z,97486.44
2023-02-19T15:57:07.290Z,97499.34
2023-02-19T16:00:03.688Z,97487.31
2023-02-19T16:02:40.854Z,97482.22
2023-02-19T16:05:23.466Z,97364.06
2023-02-19T16:08:33.727Z,97411.84
2023-02-19T16:11:04.145Z,97479.75
2023-02-19T16:13:38.272Z,97408.25
2023-02-19T16:16:25.014Z,97484.94
2023-02-19T16:18:53.730Z,97480.75
2023-02-19T16:21:24.690Z,97472.97
2023-02-19T16:24:00.975Z,97478.06
2023-02-19T16:26:28.744Z,97466.19
2023-02-19T16:31:49.184Z,97382.94
2023-02-19T16:34:38.755Z,97472.09
2023-02-19T16:37:32.864Z,97470.41
2023-02-19T16:40:09.599Z,97467.88
2023-02-19T16:42:52.334Z,97462.63
2023-02-19T16:45:19.995Z,97466.09
2023-02-19T16:47:51.416Z,97381.81
2023-02-19T16:50:22.312Z,97442.97
2023-02-19T16:52:57.058Z,97471.97
2023-02-19T16:55:24.850Z,97470.25
2023-02-19T16:57:52.697Z,97354.53
2023-02-19T17:00:23.356Z,97448.03
2023-02-19T17:03:09.400Z,97377.47
2023-02-19T17:05:43.051Z,97465.91
2023-02-19T17:08:42.834Z,97448.13
2023-02-19T17:11:13.216Z,97459.91
2023-02-19T17:13:42.043Z,97441.25
2023-02-19T17:16:21.733Z,97462.63
2023-02-19T17:18:51.071Z,97469.34
2023-02-19T17:21:25.813Z,97450.66
2023-02-19T17:23:54.158Z,97472.81
2023-02-19T17:26:24.925Z,97424.97
2023-02-19T17:29:24.475Z,97334.94
2023-02-19T17:32:19.483Z,97447.16
2023-02-19T17:34:49.953Z,97439.38
2023-02-19T17:37:17.758Z,97393.47
2023-02-19T17:39:45.152Z,97306.63
2023-02-19T17:42:12.766Z,97408.59
2023-02-19T17:44:40.876Z,97442.53
2023-02-19T17:47:08.525Z,97445.13
2023-02-19T17:49:36.621Z,97437.47
2023-02-19T17:52:05.776Z,97391.69
2023-02-19T17:54:34.461Z,97412.00
2023-02-19T17:57:05.025Z,97357.78
2023-02-19T17:59:32.634Z,97439.31
2023-02-19T18:02:00.141Z,97442.69
2023-02-19T18:04:28.630Z,97436.41
2023-02-19T18:06:56.224Z,97439.81
2023-02-19T18:09:23.766Z,97215.25
2023-02-19T18:11:51.761Z,97430.13
2023-02-19T18:14:19.744Z,97437.09
2023-02-19T18:16:50.238Z,97450.63
2023-02-19T18:19:18.382Z,97416.31
2023-02-19T18:21:45.905Z,97391.75
2023-02-19T18:24:13.197Z,97422.25
2023-02-19T18:26:41.448Z,97312.66
2023-02-19T18:29:08.987Z,97315.25
2023-02-19T18:31:37.981Z,97333.88
2023-02-19T18:34:06.260Z,97428.28
2023-02-19T18:36:33.610Z,97426.63
2023-02-19T18:39:05.403Z,97412.34
2023-02-19T18:41:33.137Z,97426.97
2023-02-19T18:46:57.781Z,97420.97
2023-02-19T18:49:32.500Z,97289.13
2023-02-19T18:52:02.150Z,97303.63
2023-02-19T18:54:30.904Z,97321.47
2023-02-19T18:57:00.959Z,97413.13
2023-02-19T18:59:28.631Z,97338.50
2023-02-19T19:01:56.161Z,97413.97
2023-02-19T19:04:23.993Z,97348.56
2023-02-19T19:06:51.683Z,97410.56
2023-02-19T19:09:19.171Z,97426.91
2023-02-19T19:11:47.129Z,97400.38
2023-02-19T19:14:14.650Z,97413.97
2023-02-19T19:16:42.721Z,97397.91
2023-02-19T19:19:11.425Z,97424.38
2023-02-19T19:21:39.521Z,97409.81
2023-02-19T19:24:08.006Z,97412.28
2023-02-19T19:26:35.826Z,97409.03
2023-02-19T19:29:03.632Z,97374.94
2023-02-19T19:31:37.076Z,97404.81
2023-02-19T19:34:07.747Z,97410.03
2023-02-19T19:36:40.455Z,97408.38
2023-02-19T19:39:45.426Z,97230.81
2023-02-19T19:42:18.064Z,97417.88
2023-02-19T19:44:47.955Z,97320.13
2023-02-19T19:47:15.373Z,97321.66
2023-02-19T19:49:49.200Z,97318.38
2023-02-19T19:52:17.995Z,97419.41
2023-02-19T19:54:45.683Z,97409.22
2023-02-19T19:57:13.489Z,97409.25
2023-02-19T19:59:42.132Z,97409.22
2023-02-19T20:02:12.062Z,97331.03
2023-02-19T20:04:39.405Z,97417.63
2023-02-19T20:07:06.946Z,97395.50
2023-02-19T20:09:34.499Z,97418.56
2023-02-19T20:12:04.853Z,97189.91
2023-02-19T20:14:33.889Z,97399.78
2023-02-19T20:17:01.899Z,97417.63
2023-02-19T20:19:29.291Z,97410.72
2023-02-19T20:21:56.913Z,97290.09
2023-02-19T20:24:28.764Z,97409.91
2023-02-19T20:26:58.887Z,97334.28
2023-02-19T20:29:30.796Z,97407.38
2023-02-19T20:32:04.022Z,97402.22
2023-02-19T20:34:31.901Z,97364.72
2023-02-19T20:36:59.603Z,97312.16
2023-02-19T20:39:29.675Z,97375.75
2023-02-19T20:41:59.190Z,97402.16
2023-02-19T20:44:28.624Z,97384.22
2023-02-19T20:47:00.889Z,97417.56
2023-02-19T20:49:31.004Z,97397.78
2023-02-19T20:52:02.460Z,97218.56
2023-02-19T20:54:32.653Z,97396.91
2023-02-19T20:57:02.525Z,97322.94
2023-02-19T20:59:35.676Z,97400.31
2023-02-19T21:02:08.837Z,97402.84
2023-02-19T21:04:41.123Z,97322.81
2023-02-19T21:07:08.631Z,97211.47
2023-02-19T21:09:36.018Z,97383.72
2023-02-19T21:12:03.650Z,97285.91
2023-02-19T21:14:31.836Z,97283.34
2023-02-19T21:16:59.411Z,97400.66
2023-02-19T21:19:27.049Z,97390.53
2023-02-19T21:21:54.678Z,97320.09
2023-02-19T21:24:22.091Z,97399.84
2023-02-19T21:26:49.823Z,97399.75
2023-02-19T21:29:20.136Z,97409.13
2023-02-19T21:31:50.550Z,97308.00
2023-02-19T21:34:23.482Z,97413.59
2023-02-19T21:36:50.898Z,97320.94
2023-02-19T21:39:21.876Z,97393.91
2023-02-19T21:41:49.770Z,97399.13
2023-02-19T21:44:17.682Z,97396.63
2023-02-19T21:47:03.689Z,97337.31
2023-02-19T21:49:31.444Z,97401.81
2023-02-19T21:52:00.859Z,97393.97
2023-02-19T21:54:28.615Z,97401.75
2023-02-19T21:56:59.237Z,97398.34
2023-02-19T21:59:26.870Z,97400.00
2023-02-19T22:01:57.664Z,97396.50
2023-02-19T22:04:25.165Z,97402.53
2023-02-19T22:06:56.618Z,97400.84
2023-02-19T22:09:24.354Z,97400.03
2023-02-19T22:11:51.831Z,97320.16
2023-02-19T22:14:19.370Z,97401.81
2023-02-19T22:16:47.474Z,97269.25
2023-02-19T22:19:15.201Z,97390.78
2023-02-19T22:21:44.726Z,97394.19
2023-02-19T22:24:21.097Z,97385.59
2023-02-19T22:26:50.736Z,97394.94
2023-02-19T22:29:18.291Z,97394.09
2023-02-19T22:31:46.011Z,97390.69
2023-02-19T22:34:15.634Z,97304.75
2023-02-19T22:36:43.327Z,97389.78
2023-02-19T22:39:22.761Z,97389.97
2023-02-19T22:41:52.210Z,97394.19
2023-02-19T22:44:19.811Z,97394.16
2023-02-19T22:46:51.336Z,97389.94
2023-02-19T22:49:19.810Z,97397.69
2023-02-19T22:52:11.052Z,97392.63
2023-02-19T22:54:38.630Z,97414.94
2023-02-19T22:57:06.217Z,97399.47
2023-02-19T22:59:34.311Z,97399.47
2023-02-19T23:02:02.438Z,97397.72
2023-02-19T23:04:30.094Z,97395.94
2023-02-19T23:06:57.662Z,97391.56
2023-02-19T23:09:27.586Z,97398.28
2023-02-19T23:12:02.627Z,97375.34
2023-02-19T23:14:30.140Z,97399.19
2023-02-19T23:16:57.645Z,97394.03
2023-02-19T23:19:25.582Z,97400.03
2023-02-19T23:21:53.483Z,97394.75
2023-02-19T23:24:21.207Z,97396.47
2023-02-19T23:26:52.141Z,97403.31
2023-02-19T23:29:27.424Z,97379.66
2023-02-19T23:31:55.608Z,97400.03
2023-02-19T23:34:24.584Z,97315.91
2023-02-19T23:36:52.528Z,97408.59
2023-02-19T23:39:22.102Z,97409.44
2023-02-19T23:41:52.049Z,97297.16
2023-02-19T23:44:21.453Z,97411.81
2023-02-19T23:46:50.373Z,97411.75
2023-02-19T23:49:18.444Z,97409.19
2023-02-19T23:51:45.781Z,97416.13
2023-02-19T23:54:13.686Z,97334.56
2023-02-19T23:56:41.292Z,97298.84
2023-02-19T23:59:08.795Z,97343.91
